MMMZ

General Rafael Buelna International Airport

Airport
ICAO code
MMMZ
IATA Code
MZT
Summary
ICAO Region
CARSAM
ICAO Territory
Location

El Walamo, Sinaloa

Serving
Mazatlan
Elevation
38 ft
Coordinates
23° 9' 41" N , 106° 15' 58" W
KCC
Metar
MMMZ 231146Z 00000KT 8SM VCFG OVC007 20/18 A2985 RMK SLP104 52007 960 8/6//

International airport 10 nm south east of Mazatlan, Mexico.

Climatology

Tropical Savannah climate (Köppen climate classification Aw)

Runways

Designator Length Width Surface Rops
8/26 2700 60 ASP Yes/Yes

Airport map

Aerial View

SKYbrary Partners:

Safety knowledge contributed by: